sensor_id;sensor_type;location;lat;lon;timestamp;P1;durP1;ratioP1;P2;durP2;ratioP2
52208;SDS011;38507;53.132;6.394;2023-07-08T00:00:20;5.95;;;2.85;;
52208;SDS011;38507;53.132;6.394;2023-07-08T00:02:46;6.53;;;3.08;;
52208;SDS011;38507;53.132;6.394;2023-07-08T00:05:13;7.32;;;3.58;;
52208;SDS011;38507;53.132;6.394;2023-07-08T00:07:42;5.63;;;3.00;;
52208;SDS011;38507;53.132;6.394;2023-07-08T00:10:12;7.70;;;3.10;;
52208;SDS011;38507;53.132;6.394;2023-07-08T00:12:39;7.72;;;3.60;;
52208;SDS011;38507;53.132;6.394;2023-07-08T00:15:05;7.10;;;3.00;;
52208;SDS011;38507;53.132;6.394;2023-07-08T00:17:33;5.63;;;3.10;;
52208;SDS011;38507;53.132;6.394;2023-07-08T00:19:59;8.10;;;2.97;;
52208;SDS011;38507;53.132;6.394;2023-07-08T00:22:25;6.38;;;2.67;;
52208;SDS011;38507;53.132;6.394;2023-07-08T00:24:51;7.80;;;3.38;;
52208;SDS011;38507;53.132;6.394;2023-07-08T00:27:16;7.88;;;2.95;;
52208;SDS011;38507;53.132;6.394;2023-07-08T00:29:42;6.53;;;3.00;;
52208;SDS011;38507;53.132;6.394;2023-07-08T00:32:13;7.10;;;3.17;;
52208;SDS011;38507;53.132;6.394;2023-07-08T00:34:40;7.32;;;3.28;;
52208;SDS011;38507;53.132;6.394;2023-07-08T00:37:12;6.63;;;2.90;;
52208;SDS011;38507;53.132;6.394;2023-07-08T00:39:38;5.47;;;2.70;;
52208;SDS011;38507;53.132;6.394;2023-07-08T00:42:10;8.25;;;3.33;;
52208;SDS011;38507;53.132;6.394;2023-07-08T00:44:46;6.15;;;3.05;;
52208;SDS011;38507;53.132;6.394;2023-07-08T00:47:14;6.35;;;3.28;;
52208;SDS011;38507;53.132;6.394;2023-07-08T00:49:45;7.95;;;3.38;;
52208;SDS011;38507;53.132;6.394;2023-07-08T00:52:20;6.78;;;3.20;;
52208;SDS011;38507;53.132;6.394;2023-07-08T00:54:49;10.95;;;3.17;;
52208;SDS011;38507;53.132;6.394;2023-07-08T00:57:15;6.43;;;3.08;;
52208;SDS011;38507;53.132;6.394;2023-07-08T00:59:44;7.55;;;3.28;;
52208;SDS011;38507;53.132;6.394;2023-07-08T01:02:15;5.85;;;2.95;;
52208;SDS011;38507;53.132;6.394;2023-07-08T01:04:48;8.25;;;2.90;;
52208;SDS011;38507;53.132;6.394;2023-07-08T01:07:21;8.85;;;3.72;;
52208;SDS011;38507;53.132;6.394;2023-07-08T01:09:51;6.50;;;3.40;;
52208;SDS011;38507;53.132;6.394;2023-07-08T01:12:26;7.65;;;3.42;;
52208;SDS011;38507;53.132;6.394;2023-07-08T01:14:56;5.65;;;3.03;;
52208;SDS011;38507;53.132;6.394;2023-07-08T01:17:25;7.82;;;3.20;;
52208;SDS011;38507;53.132;6.394;2023-07-08T01:19:54;8.82;;;3.13;;
52208;SDS011;38507;53.132;6.394;2023-07-08T01:22:20;6.50;;;3.20;;
52208;SDS011;38507;53.132;6.394;2023-07-08T01:24:46;7.50;;;3.65;;
52208;SDS011;38507;53.132;6.394;2023-07-08T01:27:13;5.30;;;3.03;;
52208;SDS011;38507;53.132;6.394;2023-07-08T01:29:40;8.55;;;3.13;;
52208;SDS011;38507;53.132;6.394;2023-07-08T01:32:06;8.70;;;3.60;;
52208;SDS011;38507;53.132;6.394;2023-07-08T01:34:42;7.10;;;3.97;;
52208;SDS011;38507;53.132;6.394;2023-07-08T01:37:18;10.27;;;3.72;;
52208;SDS011;38507;53.132;6.394;2023-07-08T01:39:44;7.97;;;3.50;;
52208;SDS011;38507;53.132;6.394;2023-07-08T01:42:09;6.65;;;3.10;;
52208;SDS011;38507;53.132;6.394;2023-07-08T01:44:36;6.78;;;3.50;;
52208;SDS011;38507;53.132;6.394;2023-07-08T01:47:12;6.40;;;3.10;;
52208;SDS011;38507;53.132;6.394;2023-07-08T01:49:41;7.15;;;3.08;;
52208;SDS011;38507;53.132;6.394;2023-07-08T01:52:09;6.43;;;3.20;;
52208;SDS011;38507;53.132;6.394;2023-07-08T01:54:36;6.82;;;3.60;;
52208;SDS011;38507;53.132;6.394;2023-07-08T01:57:02;6.10;;;3.03;;
52208;SDS011;38507;53.132;6.394;2023-07-08T01:59:28;8.02;;;3.33;;
52208;SDS011;38507;53.132;6.394;2023-07-08T02:01:54;5.63;;;3.38;;
52208;SDS011;38507;53.132;6.394;2023-07-08T02:04:20;6.78;;;3.50;;
52208;SDS011;38507;53.132;6.394;2023-07-08T02:06:57;8.13;;;3.78;;
52208;SDS011;38507;53.132;6.394;2023-07-08T02:09:24;9.82;;;3.47;;
52208;SDS011;38507;53.132;6.394;2023-07-08T02:11:53;6.28;;;3.42;;
52208;SDS011;38507;53.132;6.394;2023-07-08T02:14:18;7.72;;;3.55;;
52208;SDS011;38507;53.132;6.394;2023-07-08T02:16:44;8.27;;;3.58;;
52208;SDS011;38507;53.132;6.394;2023-07-08T02:19:10;7.07;;;3.38;;
52208;SDS011;38507;53.132;6.394;2023-07-08T02:21:36;9.38;;;3.80;;
52208;SDS011;38507;53.132;6.394;2023-07-08T02:24:03;5.57;;;3.25;;
52208;SDS011;38507;53.132;6.394;2023-07-08T02:26:28;9.15;;;3.88;;
52208;SDS011;38507;53.132;6.394;2023-07-08T02:28:57;6.80;;;3.65;;
52208;SDS011;38507;53.132;6.394;2023-07-08T02:31:23;8.32;;;4.20;;
52208;SDS011;38507;53.132;6.394;2023-07-08T02:33:51;8.02;;;4.07;;
52208;SDS011;38507;53.132;6.394;2023-07-08T02:36:17;9.13;;;3.63;;
52208;SDS011;38507;53.132;6.394;2023-07-08T02:38:42;6.13;;;3.88;;
52208;SDS011;38507;53.132;6.394;2023-07-08T02:41:08;7.93;;;4.00;;
52208;SDS011;38507;53.132;6.394;2023-07-08T02:43:34;9.02;;;3.97;;
52208;SDS011;38507;53.132;6.394;2023-07-08T02:45:59;7.63;;;3.90;;
52208;SDS011;38507;53.132;6.394;2023-07-08T02:48:25;7.78;;;3.85;;
52208;SDS011;38507;53.132;6.394;2023-07-08T02:50:50;8.00;;;4.43;;
52208;SDS011;38507;53.132;6.394;2023-07-08T02:53:23;6.53;;;3.75;;
52208;SDS011;38507;53.132;6.394;2023-07-08T02:55:48;10.18;;;3.80;;
52208;SDS011;38507;53.132;6.394;2023-07-08T02:58:14;6.57;;;4.05;;
52208;SDS011;38507;53.132;6.394;2023-07-08T03:00:39;10.73;;;4.38;;
52208;SDS011;38507;53.132;6.394;2023-07-08T03:03:05;7.47;;;4.05;;
52208;SDS011;38507;53.132;6.394;2023-07-08T03:05:31;6.78;;;4.13;;
52208;SDS011;38507;53.132;6.394;2023-07-08T03:07:56;9.27;;;4.40;;
52208;SDS011;38507;53.132;6.394;2023-07-08T03:10:22;9.95;;;4.50;;
52208;SDS011;38507;53.132;6.394;2023-07-08T03:12:47;8.80;;;4.05;;
52208;SDS011;38507;53.132;6.394;2023-07-08T03:15:13;8.55;;;4.38;;
52208;SDS011;38507;53.132;6.394;2023-07-08T03:17:39;9.73;;;4.78;;
52208;SDS011;38507;53.132;6.394;2023-07-08T03:20:06;8.07;;;4.18;;
52208;SDS011;38507;53.132;6.394;2023-07-08T03:22:32;6.75;;;4.00;;
52208;SDS011;38507;53.132;6.394;2023-07-08T03:24:58;8.80;;;4.43;;
52208;SDS011;38507;53.132;6.394;2023-07-08T03:27:23;7.43;;;4.25;;
52208;SDS011;38507;53.132;6.394;2023-07-08T03:29:49;9.70;;;4.65;;
52208;SDS011;38507;53.132;6.394;2023-07-08T03:32:14;7.40;;;4.47;;
52208;SDS011;38507;53.132;6.394;2023-07-08T03:34:40;8.63;;;4.43;;
52208;SDS011;38507;53.132;6.394;2023-07-08T03:37:06;7.90;;;4.18;;
52208;SDS011;38507;53.132;6.394;2023-07-08T03:39:33;7.63;;;4.35;;
52208;SDS011;38507;53.132;6.394;2023-07-08T03:41:59;7.22;;;4.97;;
52208;SDS011;38507;53.132;6.394;2023-07-08T03:44:25;8.43;;;4.90;;
52208;SDS011;38507;53.132;6.394;2023-07-08T03:46:51;11.40;;;4.55;;
52208;SDS011;38507;53.132;6.394;2023-07-08T03:49:17;8.05;;;4.30;;
52208;SDS011;38507;53.132;6.394;2023-07-08T03:51:47;8.95;;;4.00;;
52208;SDS011;38507;53.132;6.394;2023-07-08T03:54:13;10.35;;;4.45;;
52208;SDS011;38507;53.132;6.394;2023-07-08T03:56:40;9.43;;;4.90;;
52208;SDS011;38507;53.132;6.394;2023-07-08T03:59:06;9.25;;;4.35;;
52208;SDS011;38507;53.132;6.394;2023-07-08T04:01:32;8.82;;;4.80;;
52208;SDS011;38507;53.132;6.394;2023-07-08T04:03:58;12.30;;;5.43;;
52208;SDS011;38507;53.132;6.394;2023-07-08T04:06:24;9.43;;;4.60;;
52208;SDS011;38507;53.132;6.394;2023-07-08T04:08:51;9.07;;;4.68;;
52208;SDS011;38507;53.132;6.394;2023-07-08T04:11:18;7.60;;;5.13;;
52208;SDS011;38507;53.132;6.394;2023-07-08T04:13:45;8.00;;;4.68;;
52208;SDS011;38507;53.132;6.394;2023-07-08T04:16:15;10.57;;;5.07;;
52208;SDS011;38507;53.132;6.394;2023-07-08T04:18:41;7.93;;;4.75;;
52208;SDS011;38507;53.132;6.394;2023-07-08T04:21:07;9.48;;;5.68;;
52208;SDS011;38507;53.132;6.394;2023-07-08T04:23:33;8.63;;;5.05;;
52208;SDS011;38507;53.132;6.394;2023-07-08T04:25:58;8.60;;;4.35;;
52208;SDS011;38507;53.132;6.394;2023-07-08T04:28:24;7.28;;;4.25;;
52208;SDS011;38507;53.132;6.394;2023-07-08T04:30:50;10.65;;;4.88;;
52208;SDS011;38507;53.132;6.394;2023-07-08T04:33:16;8.73;;;4.60;;
52208;SDS011;38507;53.132;6.394;2023-07-08T04:35:42;8.93;;;5.25;;
52208;SDS011;38507;53.132;6.394;2023-07-08T04:38:13;8.75;;;4.55;;
52208;SDS011;38507;53.132;6.394;2023-07-08T04:40:46;7.65;;;4.45;;
52208;SDS011;38507;53.132;6.394;2023-07-08T04:43:12;7.53;;;4.47;;
52208;SDS011;38507;53.132;6.394;2023-07-08T04:45:39;7.75;;;4.10;;
52208;SDS011;38507;53.132;6.394;2023-07-08T04:48:09;12.07;;;4.63;;
52208;SDS011;38507;53.132;6.394;2023-07-08T04:50:39;8.43;;;4.57;;
52208;SDS011;38507;53.132;6.394;2023-07-08T04:53:09;8.10;;;4.47;;
52208;SDS011;38507;53.132;6.394;2023-07-08T04:55:46;8.30;;;4.80;;
52208;SDS011;38507;53.132;6.394;2023-07-08T04:58:15;7.43;;;4.00;;
52208;SDS011;38507;53.132;6.394;2023-07-08T05:00:40;8.68;;;4.88;;
52208;SDS011;38507;53.132;6.394;2023-07-08T05:03:06;10.00;;;4.35;;
52208;SDS011;38507;53.132;6.394;2023-07-08T05:05:31;7.70;;;4.25;;
52208;SDS011;38507;53.132;6.394;2023-07-08T05:07:57;4.70;;;3.75;;
52208;SDS011;38507;53.132;6.394;2023-07-08T05:10:23;7.30;;;4.78;;
52208;SDS011;38507;53.132;6.394;2023-07-08T05:12:48;7.20;;;4.15;;
52208;SDS011;38507;53.132;6.394;2023-07-08T05:15:14;8.88;;;4.38;;
52208;SDS011;38507;53.132;6.394;2023-07-08T05:17:41;8.73;;;4.35;;
52208;SDS011;38507;53.132;6.394;2023-07-08T05:20:08;8.98;;;4.28;;
52208;SDS011;38507;53.132;6.394;2023-07-08T05:22:35;9.45;;;4.35;;
52208;SDS011;38507;53.132;6.394;2023-07-08T05:25:01;14.05;;;4.63;;
52208;SDS011;38507;53.132;6.394;2023-07-08T05:27:27;13.95;;;4.38;;
52208;SDS011;38507;53.132;6.394;2023-07-08T05:29:53;7.85;;;4.07;;
52208;SDS011;38507;53.132;6.394;2023-07-08T05:32:19;6.57;;;4.32;;
52208;SDS011;38507;53.132;6.394;2023-07-08T05:34:45;6.38;;;3.88;;
52208;SDS011;38507;53.132;6.394;2023-07-08T05:37:11;5.88;;;3.72;;
52208;SDS011;38507;53.132;6.394;2023-07-08T05:39:37;7.55;;;4.20;;
52208;SDS011;38507;53.132;6.394;2023-07-08T05:42:03;10.48;;;4.43;;
52208;SDS011;38507;53.132;6.394;2023-07-08T05:44:29;6.75;;;3.47;;
52208;SDS011;38507;53.132;6.394;2023-07-08T05:46:54;6.25;;;3.70;;
52208;SDS011;38507;53.132;6.394;2023-07-08T05:49:20;7.10;;;3.85;;
52208;SDS011;38507;53.132;6.394;2023-07-08T05:51:45;9.50;;;3.75;;
52208;SDS011;38507;53.132;6.394;2023-07-08T05:54:12;9.85;;;3.95;;
52208;SDS011;38507;53.132;6.394;2023-07-08T05:56:39;8.15;;;3.78;;
52208;SDS011;38507;53.132;6.394;2023-07-08T05:59:05;6.20;;;3.67;;
52208;SDS011;38507;53.132;6.394;2023-07-08T06:01:30;6.45;;;3.53;;
52208;SDS011;38507;53.132;6.394;2023-07-08T06:03:57;9.45;;;3.70;;
52208;SDS011;38507;53.132;6.394;2023-07-08T06:06:26;9.57;;;3.55;;
52208;SDS011;38507;53.132;6.394;2023-07-08T06:08:53;7.90;;;3.45;;
52208;SDS011;38507;53.132;6.394;2023-07-08T06:11:19;7.97;;;3.47;;
52208;SDS011;38507;53.132;6.394;2023-07-08T06:13:45;7.63;;;3.40;;
52208;SDS011;38507;53.132;6.394;2023-07-08T06:16:10;5.80;;;3.67;;
52208;SDS011;38507;53.132;6.394;2023-07-08T06:18:36;5.45;;;3.28;;
52208;SDS011;38507;53.132;6.394;2023-07-08T06:21:02;5.35;;;3.08;;
52208;SDS011;38507;53.132;6.394;2023-07-08T06:23:28;6.47;;;2.85;;
52208;SDS011;38507;53.132;6.394;2023-07-08T06:25:54;11.43;;;3.22;;
52208;SDS011;38507;53.132;6.394;2023-07-08T06:28:20;6.80;;;3.30;;
52208;SDS011;38507;53.132;6.394;2023-07-08T06:30:47;6.60;;;3.17;;
52208;SDS011;38507;53.132;6.394;2023-07-08T06:33:13;7.90;;;3.22;;
52208;SDS011;38507;53.132;6.394;2023-07-08T06:35:39;8.88;;;3.03;;
52208;SDS011;38507;53.132;6.394;2023-07-08T06:38:05;9.13;;;3.30;;
52208;SDS011;38507;53.132;6.394;2023-07-08T06:40:31;8.70;;;3.35;;
52208;SDS011;38507;53.132;6.394;2023-07-08T06:42:57;5.88;;;2.70;;
52208;SDS011;38507;53.132;6.394;2023-07-08T06:45:23;8.27;;;3.00;;
52208;SDS011;38507;53.132;6.394;2023-07-08T06:47:49;5.82;;;2.80;;
52208;SDS011;38507;53.132;6.394;2023-07-08T06:50:15;6.13;;;2.97;;
52208;SDS011;38507;53.132;6.394;2023-07-08T06:52:40;6.20;;;2.70;;
52208;SDS011;38507;53.132;6.394;2023-07-08T06:55:07;6.93;;;3.25;;
52208;SDS011;38507;53.132;6.394;2023-07-08T06:57:35;6.10;;;2.80;;
52208;SDS011;38507;53.132;6.394;2023-07-08T07:00:03;6.32;;;3.17;;
52208;SDS011;38507;53.132;6.394;2023-07-08T07:02:33;7.47;;;2.88;;
52208;SDS011;38507;53.132;6.394;2023-07-08T07:04:59;5.25;;;2.90;;
52208;SDS011;38507;53.132;6.394;2023-07-08T07:07:25;9.60;;;3.17;;
52208;SDS011;38507;53.132;6.394;2023-07-08T07:09:51;5.70;;;2.75;;
52208;SDS011;38507;53.132;6.394;2023-07-08T07:12:16;6.65;;;3.08;;
52208;SDS011;38507;53.132;6.394;2023-07-08T07:14:43;6.78;;;3.20;;
52208;SDS011;38507;53.132;6.394;2023-07-08T07:17:08;7.25;;;2.95;;
52208;SDS011;38507;53.132;6.394;2023-07-08T07:19:34;6.95;;;2.90;;
52208;SDS011;38507;53.132;6.394;2023-07-08T07:22:00;9.00;;;2.80;;
52208;SDS011;38507;53.132;6.394;2023-07-08T07:24:25;11.98;;;3.33;;
52208;SDS011;38507;53.132;6.394;2023-07-08T07:26:51;8.10;;;2.55;;
52208;SDS011;38507;53.132;6.394;2023-07-08T07:29:17;5.65;;;2.47;;
52208;SDS011;38507;53.132;6.394;2023-07-08T07:31:43;5.22;;;2.70;;
52208;SDS011;38507;53.132;6.394;2023-07-08T07:34:11;7.60;;;2.78;;
52208;SDS011;38507;53.132;6.394;2023-07-08T07:36:37;6.95;;;2.85;;
52208;SDS011;38507;53.132;6.394;2023-07-08T07:39:03;6.75;;;2.55;;
52208;SDS011;38507;53.132;6.394;2023-07-08T07:41:28;6.40;;;2.50;;
52208;SDS011;38507;53.132;6.394;2023-07-08T07:43:54;5.57;;;2.50;;
52208;SDS011;38507;53.132;6.394;2023-07-08T07:46:19;6.72;;;2.63;;
52208;SDS011;38507;53.132;6.394;2023-07-08T07:48:46;6.88;;;2.70;;
52208;SDS011;38507;53.132;6.394;2023-07-08T07:51:12;4.50;;;2.20;;
52208;SDS011;38507;53.132;6.394;2023-07-08T07:53:37;10.88;;;2.58;;
52208;SDS011;38507;53.132;6.394;2023-07-08T07:56:03;10.80;;;3.53;;
52208;SDS011;38507;53.132;6.394;2023-07-08T07:58:29;8.65;;;3.08;;
52208;SDS011;38507;53.132;6.394;2023-07-08T08:00:55;9.25;;;2.65;;
52208;SDS011;38507;53.132;6.394;2023-07-08T08:03:22;7.72;;;2.88;;
52208;SDS011;38507;53.132;6.394;2023-07-08T08:05:48;6.25;;;2.35;;
52208;SDS011;38507;53.132;6.394;2023-07-08T08:08:14;6.80;;;2.22;;
52208;SDS011;38507;53.132;6.394;2023-07-08T08:10:41;5.80;;;2.25;;
52208;SDS011;38507;53.132;6.394;2023-07-08T08:13:07;5.10;;;2.50;;
52208;SDS011;38507;53.132;6.394;2023-07-08T08:15:33;6.68;;;2.20;;
52208;SDS011;38507;53.132;6.394;2023-07-08T08:17:59;5.78;;;2.45;;
52208;SDS011;38507;53.132;6.394;2023-07-08T08:20:25;9.18;;;2.58;;
52208;SDS011;38507;53.132;6.394;2023-07-08T08:22:51;7.20;;;2.55;;
52208;SDS011;38507;53.132;6.394;2023-07-08T08:25:17;8.82;;;2.45;;
52208;SDS011;38507;53.132;6.394;2023-07-08T08:27:44;7.43;;;2.88;;
52208;SDS011;38507;53.132;6.394;2023-07-08T08:30:11;6.35;;;2.53;;
52208;SDS011;38507;53.132;6.394;2023-07-08T08:32:37;7.40;;;2.63;;
52208;SDS011;38507;53.132;6.394;2023-07-08T08:35:03;5.95;;;2.17;;
52208;SDS011;38507;53.132;6.394;2023-07-08T08:37:29;9.18;;;2.78;;
52208;SDS011;38507;53.132;6.394;2023-07-08T08:39:55;6.95;;;2.30;;
52208;SDS011;38507;53.132;6.394;2023-07-08T08:42:34;7.07;;;2.40;;
52208;SDS011;38507;53.132;6.394;2023-07-08T08:45:05;5.20;;;2.70;;
52208;SDS011;38507;53.132;6.394;2023-07-08T08:47:39;6.53;;;2.65;;
52208;SDS011;38507;53.132;6.394;2023-07-08T08:50:18;9.20;;;2.40;;
52208;SDS011;38507;53.132;6.394;2023-07-08T08:53:04;7.03;;;2.45;;
52208;SDS011;38507;53.132;6.394;2023-07-08T08:55:33;8.35;;;2.42;;
52208;SDS011;38507;53.132;6.394;2023-07-08T08:58:02;7.45;;;2.47;;
52208;SDS011;38507;53.132;6.394;2023-07-08T09:00:54;6.00;;;2.13;;
52208;SDS011;38507;53.132;6.394;2023-07-08T09:06:21;6.78;;;2.53;;
52208;SDS011;38507;53.132;6.394;2023-07-08T09:08:50;4.47;;;2.30;;
52208;SDS011;38507;53.132;6.394;2023-07-08T09:13:51;6.15;;;2.28;;
52208;SDS011;38507;53.132;6.394;2023-07-08T09:24:24;6.57;;;2.40;;
52208;SDS011;38507;53.132;6.394;2023-07-08T09:26:56;4.82;;;2.00;;
52208;SDS011;38507;53.132;6.394;2023-07-08T09:29:24;7.68;;;2.22;;
52208;SDS011;38507;53.132;6.394;2023-07-08T09:31:50;5.57;;;2.42;;
52208;SDS011;38507;53.132;6.394;2023-07-08T09:34:17;7.78;;;2.33;;
52208;SDS011;38507;53.132;6.394;2023-07-08T09:39:17;5.85;;;2.00;;
52208;SDS011;38507;53.132;6.394;2023-07-08T09:41:47;6.40;;;2.40;;
52208;SDS011;38507;53.132;6.394;2023-07-08T09:46:54;8.63;;;2.30;;
52208;SDS011;38507;53.132;6.394;2023-07-08T09:49:27;9.45;;;2.10;;
52208;SDS011;38507;53.132;6.394;2023-07-08T09:51:56;9.70;;;2.40;;
52208;SDS011;38507;53.132;6.394;2023-07-08T09:54:23;5.18;;;2.50;;
52208;SDS011;38507;53.132;6.394;2023-07-08T09:57:03;5.55;;;2.67;;
52208;SDS011;38507;53.132;6.394;2023-07-08T09:59:48;6.53;;;2.40;;
52208;SDS011;38507;53.132;6.394;2023-07-08T10:05:22;8.75;;;2.60;;
52208;SDS011;38507;53.132;6.394;2023-07-08T10:07:55;5.85;;;2.88;;
52208;SDS011;38507;53.132;6.394;2023-07-08T10:10:34;9.65;;;2.60;;
52208;SDS011;38507;53.132;6.394;2023-07-08T10:13:04;9.02;;;3.35;;
52208;SDS011;38507;53.132;6.394;2023-07-08T10:15:37;6.28;;;2.47;;
52208;SDS011;38507;53.132;6.394;2023-07-08T10:18:16;6.93;;;2.35;;
52208;SDS011;38507;53.132;6.394;2023-07-08T10:37:10;7.20;;;2.67;;
52208;SDS011;38507;53.132;6.394;2023-07-08T10:42:53;6.72;;;2.33;;
52208;SDS011;38507;53.132;6.394;2023-07-08T10:54:10;5.63;;;2.55;;
52208;SDS011;38507;53.132;6.394;2023-07-08T10:57:13;5.68;;;2.78;;
52208;SDS011;38507;53.132;6.394;2023-07-08T11:02:41;6.60;;;2.50;;
52208;SDS011;38507;53.132;6.394;2023-07-08T11:05:46;6.13;;;2.42;;
52208;SDS011;38507;53.132;6.394;2023-07-08T11:08:25;5.43;;;2.33;;
52208;SDS011;38507;53.132;6.394;2023-07-08T11:11:09;5.93;;;2.40;;
52208;SDS011;38507;53.132;6.394;2023-07-08T11:14:00;7.00;;;2.53;;
52208;SDS011;38507;53.132;6.394;2023-07-08T11:16:35;5.53;;;2.40;;
52208;SDS011;38507;53.132;6.394;2023-07-08T11:21:51;9.27;;;2.55;;
52208;SDS011;38507;53.132;6.394;2023-07-08T11:24:29;7.07;;;3.10;;
52208;SDS011;38507;53.132;6.394;2023-07-08T11:27:10;4.57;;;2.70;;
52208;SDS011;38507;53.132;6.394;2023-07-08T11:29:50;7.70;;;2.50;;
52208;SDS011;38507;53.132;6.394;2023-07-08T11:32:22;5.57;;;2.70;;
52208;SDS011;38507;53.132;6.394;2023-07-08T11:34:51;6.60;;;2.63;;
52208;SDS011;38507;53.132;6.394;2023-07-08T11:37:18;6.10;;;2.97;;
52208;SDS011;38507;53.132;6.394;2023-07-08T11:39:46;4.63;;;2.15;;
52208;SDS011;38507;53.132;6.394;2023-07-08T11:42:37;6.90;;;2.47;;
52208;SDS011;38507;53.132;6.394;2023-07-08T11:45:29;6.35;;;2.53;;
52208;SDS011;38507;53.132;6.394;2023-07-08T11:48:03;5.15;;;2.92;;
52208;SDS011;38507;53.132;6.394;2023-07-08T11:50:31;5.55;;;3.05;;
52208;SDS011;38507;53.132;6.394;2023-07-08T11:53:03;6.57;;;2.67;;
52208;SDS011;38507;53.132;6.394;2023-07-08T11:55:37;5.75;;;2.60;;
52208;SDS011;38507;53.132;6.394;2023-07-08T11:58:13;4.28;;;2.88;;
52208;SDS011;38507;53.132;6.394;2023-07-08T12:00:58;5.80;;;2.88;;
52208;SDS011;38507;53.132;6.394;2023-07-08T12:03:51;6.97;;;2.63;;
52208;SDS011;38507;53.132;6.394;2023-07-08T12:06:42;6.13;;;2.85;;
52208;SDS011;38507;53.132;6.394;2023-07-08T12:09:13;4.55;;;2.50;;
52208;SDS011;38507;53.132;6.394;2023-07-08T12:11:47;6.30;;;2.55;;
52208;SDS011;38507;53.132;6.394;2023-07-08T12:14:17;6.32;;;2.65;;
52208;SDS011;38507;53.132;6.394;2023-07-08T12:16:42;3.33;;;2.40;;
52208;SDS011;38507;53.132;6.394;2023-07-08T12:19:09;4.93;;;2.47;;
52208;SDS011;38507;53.132;6.394;2023-07-08T12:21:40;7.93;;;2.63;;
52208;SDS011;38507;53.132;6.394;2023-07-08T12:24:07;4.18;;;3.00;;
52208;SDS011;38507;53.132;6.394;2023-07-08T12:26:36;8.15;;;2.63;;
52208;SDS011;38507;53.132;6.394;2023-07-08T12:29:01;3.15;;;2.10;;
52208;SDS011;38507;53.132;6.394;2023-07-08T12:31:27;5.40;;;2.63;;
52208;SDS011;38507;53.132;6.394;2023-07-08T12:33:54;4.50;;;2.33;;
52208;SDS011;38507;53.132;6.394;2023-07-08T12:36:21;9.85;;;2.78;;
52208;SDS011;38507;53.132;6.394;2023-07-08T12:38:52;3.72;;;2.22;;
52208;SDS011;38507;53.132;6.394;2023-07-08T12:41:24;5.60;;;2.95;;
52208;SDS011;38507;53.132;6.394;2023-07-08T12:43:52;5.10;;;2.80;;
52208;SDS011;38507;53.132;6.394;2023-07-08T12:46:19;6.10;;;2.53;;
52208;SDS011;38507;53.132;6.394;2023-07-08T12:48:46;5.75;;;2.55;;
52208;SDS011;38507;53.132;6.394;2023-07-08T12:51:13;8.77;;;2.85;;
52208;SDS011;38507;53.132;6.394;2023-07-08T12:53:41;8.98;;;3.08;;
52208;SDS011;38507;53.132;6.394;2023-07-08T12:56:08;5.68;;;2.47;;
52208;SDS011;38507;53.132;6.394;2023-07-08T12:58:36;6.68;;;2.83;;
52208;SDS011;38507;53.132;6.394;2023-07-08T13:01:05;7.38;;;3.33;;
52208;SDS011;38507;53.132;6.394;2023-07-08T13:03:36;6.75;;;3.17;;
52208;SDS011;38507;53.132;6.394;2023-07-08T13:08:37;6.75;;;2.50;;
52208;SDS011;38507;53.132;6.394;2023-07-08T13:11:04;6.93;;;2.72;;
52208;SDS011;38507;53.132;6.394;2023-07-08T13:13:31;5.45;;;2.53;;
52208;SDS011;38507;53.132;6.394;2023-07-08T13:16:00;8.05;;;3.70;;
52208;SDS011;38507;53.132;6.394;2023-07-08T13:18:32;5.97;;;2.83;;
52208;SDS011;38507;53.132;6.394;2023-07-08T13:21:04;6.38;;;2.70;;
52208;SDS011;38507;53.132;6.394;2023-07-08T13:23:32;5.65;;;2.63;;
52208;SDS011;38507;53.132;6.394;2023-07-08T13:25:59;4.32;;;3.03;;
52208;SDS011;38507;53.132;6.394;2023-07-08T13:30:53;5.28;;;2.90;;
52208;SDS011;38507;53.132;6.394;2023-07-08T13:33:21;5.75;;;3.15;;
52208;SDS011;38507;53.132;6.394;2023-07-08T13:35:47;4.32;;;2.88;;
52208;SDS011;38507;53.132;6.394;2023-07-08T13:38:15;8.35;;;3.40;;
52208;SDS011;38507;53.132;6.394;2023-07-08T13:40:49;5.75;;;3.22;;
52208;SDS011;38507;53.132;6.394;2023-07-08T13:43:23;7.32;;;3.22;;
52208;SDS011;38507;53.132;6.394;2023-07-08T13:48:55;6.00;;;2.97;;
52208;SDS011;38507;53.132;6.394;2023-07-08T13:51:22;6.40;;;3.58;;
52208;SDS011;38507;53.132;6.394;2023-07-08T13:53:53;7.80;;;3.50;;
52208;SDS011;38507;53.132;6.394;2023-07-08T13:56:25;5.80;;;2.70;;
52208;SDS011;38507;53.132;6.394;2023-07-08T13:59:07;6.15;;;3.15;;
52208;SDS011;38507;53.132;6.394;2023-07-08T14:01:37;6.68;;;3.35;;
52208;SDS011;38507;53.132;6.394;2023-07-08T14:04:04;5.40;;;3.25;;
52208;SDS011;38507;53.132;6.394;2023-07-08T14:06:32;6.65;;;3.45;;
52208;SDS011;38507;53.132;6.394;2023-07-08T14:09:33;8.13;;;3.45;;
52208;SDS011;38507;53.132;6.394;2023-07-08T14:11:52;6.15;;;3.60;;
52208;SDS011;38507;53.132;6.394;2023-07-08T14:14:19;7.22;;;3.38;;
52208;SDS011;38507;53.132;6.394;2023-07-08T14:16:48;8.77;;;3.50;;
52208;SDS011;38507;53.132;6.394;2023-07-08T14:19:34;5.35;;;3.65;;
52208;SDS011;38507;53.132;6.394;2023-07-08T14:24:27;5.32;;;3.65;;
52208;SDS011;38507;53.132;6.394;2023-07-08T14:26:53;6.25;;;3.78;;
52208;SDS011;38507;53.132;6.394;2023-07-08T14:29:19;6.03;;;4.00;;
52208;SDS011;38507;53.132;6.394;2023-07-08T14:31:45;8.43;;;4.32;;
52208;SDS011;38507;53.132;6.394;2023-07-08T14:34:26;7.70;;;3.80;;
52208;SDS011;38507;53.132;6.394;2023-07-08T14:36:52;9.35;;;4.10;;
52208;SDS011;38507;53.132;6.394;2023-07-08T14:39:18;8.80;;;3.92;;
52208;SDS011;38507;53.132;6.394;2023-07-08T14:41:45;11.55;;;4.20;;
52208;SDS011;38507;53.132;6.394;2023-07-08T14:44:20;9.52;;;4.30;;
52208;SDS011;38507;53.132;6.394;2023-07-08T14:46:46;6.18;;;3.72;;
52208;SDS011;38507;53.132;6.394;2023-07-08T14:49:14;6.25;;;4.30;;
52208;SDS011;38507;53.132;6.394;2023-07-08T14:51:41;7.63;;;3.97;;
52208;SDS011;38507;53.132;6.394;2023-07-08T14:54:07;9.32;;;4.78;;
52208;SDS011;38507;53.132;6.394;2023-07-08T14:56:33;7.63;;;4.35;;
52208;SDS011;38507;53.132;6.394;2023-07-08T14:58:58;6.63;;;4.30;;
52208;SDS011;38507;53.132;6.394;2023-07-08T15:01:24;8.43;;;4.40;;
52208;SDS011;38507;53.132;6.394;2023-07-08T15:03:54;5.93;;;4.60;;
52208;SDS011;38507;53.132;6.394;2023-07-08T15:06:21;7.93;;;4.43;;
52208;SDS011;38507;53.132;6.394;2023-07-08T15:08:47;7.10;;;4.38;;
52208;SDS011;38507;53.132;6.394;2023-07-08T15:11:13;7.07;;;4.20;;
52208;SDS011;38507;53.132;6.394;2023-07-08T15:13:39;5.75;;;4.25;;
52208;SDS011;38507;53.132;6.394;2023-07-08T15:16:10;9.73;;;4.28;;
52208;SDS011;38507;53.132;6.394;2023-07-08T15:18:39;6.05;;;4.35;;
52208;SDS011;38507;53.132;6.394;2023-07-08T15:21:07;9.60;;;4.53;;
52208;SDS011;38507;53.132;6.394;2023-07-08T15:23:37;7.20;;;4.00;;
52208;SDS011;38507;53.132;6.394;2023-07-08T15:26:03;7.93;;;4.32;;
52208;SDS011;38507;53.132;6.394;2023-07-08T15:28:48;6.90;;;5.00;;
52208;SDS011;38507;53.132;6.394;2023-07-08T15:31:18;8.48;;;4.10;;
52208;SDS011;38507;53.132;6.394;2023-07-08T15:33:49;13.85;;;4.82;;
52208;SDS011;38507;53.132;6.394;2023-07-08T15:36:19;9.88;;;4.70;;
52208;SDS011;38507;53.132;6.394;2023-07-08T15:38:44;7.55;;;4.47;;
52208;SDS011;38507;53.132;6.394;2023-07-08T15:41:12;5.97;;;4.20;;
52208;SDS011;38507;53.132;6.394;2023-07-08T15:43:49;9.23;;;4.55;;
52208;SDS011;38507;53.132;6.394;2023-07-08T15:46:17;11.15;;;4.55;;
52208;SDS011;38507;53.132;6.394;2023-07-08T15:48:43;10.40;;;4.60;;
52208;SDS011;38507;53.132;6.394;2023-07-08T15:51:12;6.93;;;4.40;;
52208;SDS011;38507;53.132;6.394;2023-07-08T15:53:39;9.52;;;4.80;;
52208;SDS011;38507;53.132;6.394;2023-07-08T15:56:07;9.52;;;4.75;;
52208;SDS011;38507;53.132;6.394;2023-07-08T15:58:38;11.05;;;4.55;;
52208;SDS011;38507;53.132;6.394;2023-07-08T16:01:04;8.95;;;5.45;;
52208;SDS011;38507;53.132;6.394;2023-07-08T16:03:32;7.72;;;4.28;;